sensor_id;sensor_type;location;lat;lon;timestamp;temperature;humidity
4050;DHT22;2039;50.894;6.888;2022-09-17T00:02:22;11.60;99.90
4050;DHT22;2039;50.894;6.888;2022-09-17T00:04:50;11.70;99.90
4050;DHT22;2039;50.894;6.888;2022-09-17T00:07:16;11.70;99.90
4050;DHT22;2039;50.894;6.888;2022-09-17T00:09:42;11.70;99.90
4050;DHT22;2039;50.894;6.888;2022-09-17T00:12:09;11.70;99.90
4050;DHT22;2039;50.894;6.888;2022-09-17T00:14:34;11.70;99.90
4050;DHT22;2039;50.894;6.888;2022-09-17T00:17:00;11.70;99.90
4050;DHT22;2039;50.894;6.888;2022-09-17T00:19:26;11.70;99.90
4050;DHT22;2039;50.894;6.888;2022-09-17T00:21:52;11.70;99.90
4050;DHT22;2039;50.894;6.888;2022-09-17T00:24:18;11.60;99.90
4050;DHT22;2039;50.894;6.888;2022-09-17T00:26:45;11.70;99.90
4050;DHT22;2039;50.894;6.888;2022-09-17T00:29:11;11.80;99.90
4050;DHT22;2039;50.894;6.888;2022-09-17T00:31:37;11.80;99.90
4050;DHT22;2039;50.894;6.888;2022-09-17T00:34:04;11.80;99.90
4050;DHT22;2039;50.894;6.888;2022-09-17T00:36:33;11.80;99.90
4050;DHT22;2039;50.894;6.888;2022-09-17T00:38:59;11.80;99.90
4050;DHT22;2039;50.894;6.888;2022-09-17T00:41:28;11.80;99.90
4050;DHT22;2039;50.894;6.888;2022-09-17T00:43:59;11.80;99.90
4050;DHT22;2039;50.894;6.888;2022-09-17T00:46:38;11.70;99.90
4050;DHT22;2039;50.894;6.888;2022-09-17T00:49:10;11.80;99.90
4050;DHT22;2039;50.894;6.888;2022-09-17T00:51:52;11.70;99.90
4050;DHT22;2039;50.894;6.888;2022-09-17T00:54:20;11.70;99.90
4050;DHT22;2039;50.894;6.888;2022-09-17T00:56:46;11.70;99.90
4050;DHT22;2039;50.894;6.888;2022-09-17T00:59:14;11.70;99.90
4050;DHT22;2039;50.894;6.888;2022-09-17T01:01:39;11.70;99.90
4050;DHT22;2039;50.894;6.888;2022-09-17T01:04:05;11.70;99.90
4050;DHT22;2039;50.894;6.888;2022-09-17T01:06:35;11.70;99.90
4050;DHT22;2039;50.894;6.888;2022-09-17T01:20:47;11.60;99.90
4050;DHT22;2039;50.894;6.888;2022-09-17T01:32:02;11.60;99.90
4050;DHT22;2039;50.894;6.888;2022-09-17T01:37:33;11.70;99.90
4050;DHT22;2039;50.894;6.888;2022-09-17T01:40:08;11.70;99.90
4050;DHT22;2039;50.894;6.888;2022-09-17T01:42:38;11.70;99.90
4050;DHT22;2039;50.894;6.888;2022-09-17T01:47:52;11.80;99.90
4050;DHT22;2039;50.894;6.888;2022-09-17T01:50:24;11.70;99.90
4050;DHT22;2039;50.894;6.888;2022-09-17T01:52:53;11.70;99.90
4050;DHT22;2039;50.894;6.888;2022-09-17T01:55:21;11.60;99.90
4050;DHT22;2039;50.894;6.888;2022-09-17T01:57:55;11.60;99.90
4050;DHT22;2039;50.894;6.888;2022-09-17T02:00:22;11.70;99.90
4050;DHT22;2039;50.894;6.888;2022-09-17T02:02:54;11.60;99.90
4050;DHT22;2039;50.894;6.888;2022-09-17T02:05:49;11.50;99.90
4050;DHT22;2039;50.894;6.888;2022-09-17T02:08:21;11.50;99.90
4050;DHT22;2039;50.894;6.888;2022-09-17T02:10:54;11.50;99.90
4050;DHT22;2039;50.894;6.888;2022-09-17T02:13:57;11.50;99.90
4050;DHT22;2039;50.894;6.888;2022-09-17T02:16:24;11.50;99.90
4050;DHT22;2039;50.894;6.888;2022-09-17T02:19:05;11.50;99.90
4050;DHT22;2039;50.894;6.888;2022-09-17T02:24:34;11.50;99.90
4050;DHT22;2039;50.894;6.888;2022-09-17T02:29:59;11.40;99.90
4050;DHT22;2039;50.894;6.888;2022-09-17T02:32:25;11.40;99.90
4050;DHT22;2039;50.894;6.888;2022-09-17T02:34:50;11.40;99.90
4050;DHT22;2039;50.894;6.888;2022-09-17T02:37:17;11.50;99.90
4050;DHT22;2039;50.894;6.888;2022-09-17T02:39:43;11.40;99.90
4050;DHT22;2039;50.894;6.888;2022-09-17T02:58:29;11.50;99.90
4050;DHT22;2039;50.894;6.888;2022-09-17T03:01:00;11.50;99.90
4050;DHT22;2039;50.894;6.888;2022-09-17T03:03:34;11.60;99.90
4050;DHT22;2039;50.894;6.888;2022-09-17T03:06:03;11.60;99.90
4050;DHT22;2039;50.894;6.888;2022-09-17T03:08:33;11.60;99.90
4050;DHT22;2039;50.894;6.888;2022-09-17T03:10:59;11.60;99.90
4050;DHT22;2039;50.894;6.888;2022-09-17T03:13:25;11.60;99.90
4050;DHT22;2039;50.894;6.888;2022-09-17T03:15:51;11.50;99.90
4050;DHT22;2039;50.894;6.888;2022-09-17T03:18:16;11.50;99.90
4050;DHT22;2039;50.894;6.888;2022-09-17T03:20:42;11.60;99.90
4050;DHT22;2039;50.894;6.888;2022-09-17T03:23:08;11.60;99.90
4050;DHT22;2039;50.894;6.888;2022-09-17T03:25:33;11.50;99.90
4050;DHT22;2039;50.894;6.888;2022-09-17T03:27:59;11.50;99.90
4050;DHT22;2039;50.894;6.888;2022-09-17T03:30:25;11.60;99.90
4050;DHT22;2039;50.894;6.888;2022-09-17T03:32:50;11.60;99.90
4050;DHT22;2039;50.894;6.888;2022-09-17T03:35:16;11.70;99.90
4050;DHT22;2039;50.894;6.888;2022-09-17T03:37:42;11.60;99.90
4050;DHT22;2039;50.894;6.888;2022-09-17T03:40:08;11.70;99.90
4050;DHT22;2039;50.894;6.888;2022-09-17T03:42:35;11.60;99.90
4050;DHT22;2039;50.894;6.888;2022-09-17T03:45:00;11.70;99.90
4050;DHT22;2039;50.894;6.888;2022-09-17T03:47:26;11.60;99.90
4050;DHT22;2039;50.894;6.888;2022-09-17T03:49:51;11.60;99.90
4050;DHT22;2039;50.894;6.888;2022-09-17T03:52:17;11.60;99.90
4050;DHT22;2039;50.894;6.888;2022-09-17T03:54:43;11.60;99.90
4050;DHT22;2039;50.894;6.888;2022-09-17T03:57:08;11.50;99.90
4050;DHT22;2039;50.894;6.888;2022-09-17T03:59:34;11.50;99.90
4050;DHT22;2039;50.894;6.888;2022-09-17T04:02:00;11.50;99.90
4050;DHT22;2039;50.894;6.888;2022-09-17T04:04:26;11.60;99.90
4050;DHT22;2039;50.894;6.888;2022-09-17T04:06:51;11.60;99.90
4050;DHT22;2039;50.894;6.888;2022-09-17T04:09:17;11.60;99.90
4050;DHT22;2039;50.894;6.888;2022-09-17T04:11:43;11.70;99.90
4050;DHT22;2039;50.894;6.888;2022-09-17T04:14:08;11.70;99.90
4050;DHT22;2039;50.894;6.888;2022-09-17T04:16:34;11.70;99.90
4050;DHT22;2039;50.894;6.888;2022-09-17T04:19:00;11.60;99.90
4050;DHT22;2039;50.894;6.888;2022-09-17T04:21:25;11.60;99.90
4050;DHT22;2039;50.894;6.888;2022-09-17T04:23:51;11.60;99.90
4050;DHT22;2039;50.894;6.888;2022-09-17T04:26:17;11.60;99.90
4050;DHT22;2039;50.894;6.888;2022-09-17T04:28:42;11.60;99.90
4050;DHT22;2039;50.894;6.888;2022-09-17T04:31:08;11.60;99.90
4050;DHT22;2039;50.894;6.888;2022-09-17T04:33:34;11.50;99.90
4050;DHT22;2039;50.894;6.888;2022-09-17T04:36:00;11.60;99.90
4050;DHT22;2039;50.894;6.888;2022-09-17T04:38:25;11.50;99.90
4050;DHT22;2039;50.894;6.888;2022-09-17T04:40:54;11.50;99.90
4050;DHT22;2039;50.894;6.888;2022-09-17T04:43:22;11.60;99.90
4050;DHT22;2039;50.894;6.888;2022-09-17T04:45:47;11.50;99.90
4050;DHT22;2039;50.894;6.888;2022-09-17T04:48:15;11.50;99.90
4050;DHT22;2039;50.894;6.888;2022-09-17T04:50:40;11.40;99.90
4050;DHT22;2039;50.894;6.888;2022-09-17T04:53:06;11.40;99.90
4050;DHT22;2039;50.894;6.888;2022-09-17T04:55:32;11.40;99.90
4050;DHT22;2039;50.894;6.888;2022-09-17T04:57:57;11.40;99.90
4050;DHT22;2039;50.894;6.888;2022-09-17T05:00:23;11.40;99.90
4050;DHT22;2039;50.894;6.888;2022-09-17T05:02:51;11.40;99.90
4050;DHT22;2039;50.894;6.888;2022-09-17T05:05:18;11.40;99.90
4050;DHT22;2039;50.894;6.888;2022-09-17T05:07:44;11.50;99.90
4050;DHT22;2039;50.894;6.888;2022-09-17T05:10:11;11.50;99.90
4050;DHT22;2039;50.894;6.888;2022-09-17T05:12:37;11.50;99.90
4050;DHT22;2039;50.894;6.888;2022-09-17T05:15:04;11.50;99.90
4050;DHT22;2039;50.894;6.888;2022-09-17T05:17:30;11.50;99.90
4050;DHT22;2039;50.894;6.888;2022-09-17T05:19:55;11.50;99.90
4050;DHT22;2039;50.894;6.888;2022-09-17T05:22:21;11.50;99.90
4050;DHT22;2039;50.894;6.888;2022-09-17T05:24:47;11.50;99.90
4050;DHT22;2039;50.894;6.888;2022-09-17T05:27:13;11.50;99.90
4050;DHT22;2039;50.894;6.888;2022-09-17T05:29:38;11.60;99.90
4050;DHT22;2039;50.894;6.888;2022-09-17T05:32:04;11.50;99.90
4050;DHT22;2039;50.894;6.888;2022-09-17T05:34:30;11.50;99.90
4050;DHT22;2039;50.894;6.888;2022-09-17T05:36:55;11.50;99.90
4050;DHT22;2039;50.894;6.888;2022-09-17T05:39:21;11.50;99.90
4050;DHT22;2039;50.894;6.888;2022-09-17T05:41:53;11.50;99.90
4050;DHT22;2039;50.894;6.888;2022-09-17T05:44:22;11.60;99.90
4050;DHT22;2039;50.894;6.888;2022-09-17T05:46:48;11.60;99.90
4050;DHT22;2039;50.894;6.888;2022-09-17T05:49:13;11.60;99.90
4050;DHT22;2039;50.894;6.888;2022-09-17T05:51:40;11.60;99.90
4050;DHT22;2039;50.894;6.888;2022-09-17T05:54:06;11.70;99.90
4050;DHT22;2039;50.894;6.888;2022-09-17T05:56:32;11.70;99.90
4050;DHT22;2039;50.894;6.888;2022-09-17T05:58:58;11.80;99.90
4050;DHT22;2039;50.894;6.888;2022-09-17T06:01:24;11.80;99.90
4050;DHT22;2039;50.894;6.888;2022-09-17T06:03:50;11.90;99.90
4050;DHT22;2039;50.894;6.888;2022-09-17T06:06:15;12.00;99.90
4050;DHT22;2039;50.894;6.888;2022-09-17T06:08:41;12.00;99.90
4050;DHT22;2039;50.894;6.888;2022-09-17T06:11:08;12.00;99.90
4050;DHT22;2039;50.894;6.888;2022-09-17T06:13:34;12.10;99.90
4050;DHT22;2039;50.894;6.888;2022-09-17T06:16:01;12.20;99.90
4050;DHT22;2039;50.894;6.888;2022-09-17T06:18:30;12.30;99.90
4050;DHT22;2039;50.894;6.888;2022-09-17T06:20:59;12.30;99.90
4050;DHT22;2039;50.894;6.888;2022-09-17T06:23:25;12.40;99.90
4050;DHT22;2039;50.894;6.888;2022-09-17T06:25:58;12.40;99.90
4050;DHT22;2039;50.894;6.888;2022-09-17T06:28:24;12.50;99.90
4050;DHT22;2039;50.894;6.888;2022-09-17T06:30:50;12.60;99.90
4050;DHT22;2039;50.894;6.888;2022-09-17T06:33:21;12.60;99.90
4050;DHT22;2039;50.894;6.888;2022-09-17T06:35:47;12.60;99.90
4050;DHT22;2039;50.894;6.888;2022-09-17T06:38:13;12.70;99.90
4050;DHT22;2039;50.894;6.888;2022-09-17T06:40:39;12.60;99.90
4050;DHT22;2039;50.894;6.888;2022-09-17T06:43:04;12.60;99.90
4050;DHT22;2039;50.894;6.888;2022-09-17T06:45:30;12.60;99.90
4050;DHT22;2039;50.894;6.888;2022-09-17T06:47:56;12.70;99.90
4050;DHT22;2039;50.894;6.888;2022-09-17T06:50:22;12.60;99.90
4050;DHT22;2039;50.894;6.888;2022-09-17T06:52:52;12.60;99.90
4050;DHT22;2039;50.894;6.888;2022-09-17T06:55:18;12.60;99.90
4050;DHT22;2039;50.894;6.888;2022-09-17T06:57:45;12.60;99.90
4050;DHT22;2039;50.894;6.888;2022-09-17T07:00:12;12.60;99.90
4050;DHT22;2039;50.894;6.888;2022-09-17T07:02:38;12.60;99.90
4050;DHT22;2039;50.894;6.888;2022-09-17T07:05:05;12.60;99.90
4050;DHT22;2039;50.894;6.888;2022-09-17T07:07:30;12.60;99.90
4050;DHT22;2039;50.894;6.888;2022-09-17T07:09:56;12.50;99.90
4050;DHT22;2039;50.894;6.888;2022-09-17T07:12:22;12.40;99.90
4050;DHT22;2039;50.894;6.888;2022-09-17T07:14:48;12.40;99.90
4050;DHT22;2039;50.894;6.888;2022-09-17T07:17:14;12.40;99.90
4050;DHT22;2039;50.894;6.888;2022-09-17T07:19:39;12.40;99.90
4050;DHT22;2039;50.894;6.888;2022-09-17T07:22:05;12.50;99.90
4050;DHT22;2039;50.894;6.888;2022-09-17T07:24:31;12.50;99.90
4050;DHT22;2039;50.894;6.888;2022-09-17T07:26:57;12.60;99.90
4050;DHT22;2039;50.894;6.888;2022-09-17T07:29:23;12.60;99.90
4050;DHT22;2039;50.894;6.888;2022-09-17T07:31:54;12.60;99.90
4050;DHT22;2039;50.894;6.888;2022-09-17T07:34:19;12.60;99.90
4050;DHT22;2039;50.894;6.888;2022-09-17T07:36:45;12.60;99.90
4050;DHT22;2039;50.894;6.888;2022-09-17T07:39:11;12.60;99.90
4050;DHT22;2039;50.894;6.888;2022-09-17T07:41:40;12.60;99.90
4050;DHT22;2039;50.894;6.888;2022-09-17T07:44:05;12.50;99.90
4050;DHT22;2039;50.894;6.888;2022-09-17T07:46:32;12.60;99.90
4050;DHT22;2039;50.894;6.888;2022-09-17T07:48:58;12.60;99.90
4050;DHT22;2039;50.894;6.888;2022-09-17T07:51:25;12.70;99.90
4050;DHT22;2039;50.894;6.888;2022-09-17T07:53:53;12.90;99.90
4050;DHT22;2039;50.894;6.888;2022-09-17T07:56:20;13.00;99.90
4050;DHT22;2039;50.894;6.888;2022-09-17T07:58:46;13.00;99.90
4050;DHT22;2039;50.894;6.888;2022-09-17T08:01:12;13.00;99.90
4050;DHT22;2039;50.894;6.888;2022-09-17T08:03:40;13.00;99.90
4050;DHT22;2039;50.894;6.888;2022-09-17T08:06:10;13.00;99.90
4050;DHT22;2039;50.894;6.888;2022-09-17T08:08:36;13.20;99.90
4050;DHT22;2039;50.894;6.888;2022-09-17T08:11:04;13.30;99.90
4050;DHT22;2039;50.894;6.888;2022-09-17T08:13:30;13.30;99.90
4050;DHT22;2039;50.894;6.888;2022-09-17T08:16:05;13.40;99.90
4050;DHT22;2039;50.894;6.888;2022-09-17T08:18:32;13.50;99.90
4050;DHT22;2039;50.894;6.888;2022-09-17T08:20:59;13.60;99.90
4050;DHT22;2039;50.894;6.888;2022-09-17T08:23:26;13.70;99.90
4050;DHT22;2039;50.894;6.888;2022-09-17T08:25:53;13.70;99.90
4050;DHT22;2039;50.894;6.888;2022-09-17T08:28:20;13.70;99.90
4050;DHT22;2039;50.894;6.888;2022-09-17T08:30:46;13.70;99.90
4050;DHT22;2039;50.894;6.888;2022-09-17T08:33:13;13.70;99.90
4050;DHT22;2039;50.894;6.888;2022-09-17T08:35:38;13.70;99.90
4050;DHT22;2039;50.894;6.888;2022-09-17T08:38:05;13.80;99.90
4050;DHT22;2039;50.894;6.888;2022-09-17T08:40:35;13.70;99.90
4050;DHT22;2039;50.894;6.888;2022-09-17T08:43:10;13.70;99.90
4050;DHT22;2039;50.894;6.888;2022-09-17T08:45:40;13.70;99.90
4050;DHT22;2039;50.894;6.888;2022-09-17T08:48:10;13.70;99.90
4050;DHT22;2039;50.894;6.888;2022-09-17T08:50:39;13.80;99.90
4050;DHT22;2039;50.894;6.888;2022-09-17T08:53:25;13.80;99.90
4050;DHT22;2039;50.894;6.888;2022-09-17T08:56:09;14.00;99.90
4050;DHT22;2039;50.894;6.888;2022-09-17T08:58:52;14.30;99.90
4050;DHT22;2039;50.894;6.888;2022-09-17T09:07:05;14.50;92.80
4050;DHT22;2039;50.894;6.888;2022-09-17T09:09:36;14.60;97.10
4050;DHT22;2039;50.894;6.888;2022-09-17T09:12:25;14.60;94.10
4050;DHT22;2039;50.894;6.888;2022-09-17T09:15:00;14.70;94.70
4050;DHT22;2039;50.894;6.888;2022-09-17T09:17:41;14.70;91.00
4050;DHT22;2039;50.894;6.888;2022-09-17T09:20:29;14.80;93.20
4050;DHT22;2039;50.894;6.888;2022-09-17T09:23:49;14.90;91.70
4050;DHT22;2039;50.894;6.888;2022-09-17T09:33:54;14.90;88.20
4050;DHT22;2039;50.894;6.888;2022-09-17T09:36:20;15.00;86.00
4050;DHT22;2039;50.894;6.888;2022-09-17T09:38:53;15.20;85.90
4050;DHT22;2039;50.894;6.888;2022-09-17T09:41:33;15.30;78.20
4050;DHT22;2039;50.894;6.888;2022-09-17T09:44:04;15.30;80.10
4050;DHT22;2039;50.894;6.888;2022-09-17T09:52:36;14.90;70.70
4050;DHT22;2039;50.894;6.888;2022-09-17T10:00:38;15.20;48.70
4050;DHT22;2039;50.894;6.888;2022-09-17T10:03:22;15.50;50.70
4050;DHT22;2039;50.894;6.888;2022-09-17T10:06:06;15.80;47.00
4050;DHT22;2039;50.894;6.888;2022-09-17T10:09:19;16.00;46.30
4050;DHT22;2039;50.894;6.888;2022-09-17T10:11:28;16.20;47.80
4050;DHT22;2039;50.894;6.888;2022-09-17T10:16:38;16.10;25.90
4050;DHT22;2039;50.894;6.888;2022-09-17T10:21:37;16.20;13.80
4050;DHT22;2039;50.894;6.888;2022-09-17T10:24:29;16.50;21.30
4050;DHT22;2039;50.894;6.888;2022-09-17T10:27:13;16.80;17.20
4050;DHT22;2039;50.894;6.888;2022-09-17T10:29:49;16.80;5.10
4050;DHT22;2039;50.894;6.888;2022-09-17T10:32:17;16.80;8.20
4050;DHT22;2039;50.894;6.888;2022-09-17T10:37:50;16.30;1.00
4050;DHT22;2039;50.894;6.888;2022-09-17T10:42:46;16.30;19.40
4050;DHT22;2039;50.894;6.888;2022-09-17T10:45:29;16.50;25.20
4050;DHT22;2039;50.894;6.888;2022-09-17T10:47:57;16.60;23.00
4050;DHT22;2039;50.894;6.888;2022-09-17T10:50:29;16.70;15.80
4050;DHT22;2039;50.894;6.888;2022-09-17T10:53:00;17.00;14.90
4050;DHT22;2039;50.894;6.888;2022-09-17T10:58:41;17.00;17.30
4050;DHT22;2039;50.894;6.888;2022-09-17T11:07:16;16.50;28.30
4050;DHT22;2039;50.894;6.888;2022-09-17T11:20:42;17.30;1.00
4050;DHT22;2039;50.894;6.888;2022-09-17T11:23:33;17.50;1.00
4050;DHT22;2039;50.894;6.888;2022-09-17T11:37:18;17.90;1.00
4050;DHT22;2039;50.894;6.888;2022-09-17T11:42:46;17.30;1.00
4050;DHT22;2039;50.894;6.888;2022-09-17T11:45:16;16.90;3.00
4050;DHT22;2039;50.894;6.888;2022-09-17T11:48:14;16.50;48.10
4050;DHT22;2039;50.894;6.888;2022-09-17T11:50:44;15.70;90.00
4050;DHT22;2039;50.894;6.888;2022-09-17T12:01:12;14.50;99.90
4050;DHT22;2039;50.894;6.888;2022-09-17T12:04:00;14.50;99.90
4050;DHT22;2039;50.894;6.888;2022-09-17T12:06:42;14.70;99.90
4050;DHT22;2039;50.894;6.888;2022-09-17T12:09:20;14.90;99.90
4050;DHT22;2039;50.894;6.888;2022-09-17T12:12:04;15.30;99.90
4050;DHT22;2039;50.894;6.888;2022-09-17T12:17:00;15.80;99.90
4050;DHT22;2039;50.894;6.888;2022-09-17T12:22:03;15.90;98.10
4050;DHT22;2039;50.894;6.888;2022-09-17T12:24:30;15.60;99.90
4050;DHT22;2039;50.894;6.888;2022-09-17T12:27:14;15.50;98.20
4050;DHT22;2039;50.894;6.888;2022-09-17T12:41:14;15.40;97.80
4050;DHT22;2039;50.894;6.888;2022-09-17T12:58:14;15.90;99.90
4050;DHT22;2039;50.894;6.888;2022-09-17T13:01:09;16.30;99.90
4050;DHT22;2039;50.894;6.888;2022-09-17T13:03:42;16.70;86.60
4050;DHT22;2039;50.894;6.888;2022-09-17T13:09:30;16.80;65.70
4050;DHT22;2039;50.894;6.888;2022-09-17T13:17:06;17.30;60.60
4050;DHT22;2039;50.894;6.888;2022-09-17T13:19:45;17.40;45.90
4050;DHT22;2039;50.894;6.888;2022-09-17T13:22:20;17.30;31.20
4050;DHT22;2039;50.894;6.888;2022-09-17T13:25:04;17.30;33.10
4050;DHT22;2039;50.894;6.888;2022-09-17T13:27:31;17.40;30.90
4050;DHT22;2039;50.894;6.888;2022-09-17T13:30:00;17.60;30.30
4050;DHT22;2039;50.894;6.888;2022-09-17T13:40:21;16.50;25.10
4050;DHT22;2039;50.894;6.888;2022-09-17T13:45:27;15.20;75.60
4050;DHT22;2039;50.894;6.888;2022-09-17T13:48:09;14.70;91.90
4050;DHT22;2039;50.894;6.888;2022-09-17T13:50:40;14.50;98.70
4050;DHT22;2039;50.894;6.888;2022-09-17T13:55:42;13.90;99.90
4050;DHT22;2039;50.894;6.888;2022-09-17T14:08:48;14.50;99.90
4050;DHT22;2039;50.894;6.888;2022-09-17T14:12:59;14.70;99.90
4050;DHT22;2039;50.894;6.888;2022-09-17T14:15:58;14.60;99.90
4050;DHT22;2039;50.894;6.888;2022-09-17T14:21:04;15.10;99.90
4050;DHT22;2039;50.894;6.888;2022-09-17T14:23:40;15.20;99.90
4050;DHT22;2039;50.894;6.888;2022-09-17T14:26:16;15.50;99.90
4050;DHT22;2039;50.894;6.888;2022-09-17T14:29:07;15.70;99.90
4050;DHT22;2039;50.894;6.888;2022-09-17T14:31:37;15.80;99.90
4050;DHT22;2039;50.894;6.888;2022-09-17T14:34:12;15.60;99.90
4050;DHT22;2039;50.894;6.888;2022-09-17T14:36:42;15.40;99.90
4050;DHT22;2039;50.894;6.888;2022-09-17T14:39:23;15.30;99.90
4050;DHT22;2039;50.894;6.888;2022-09-17T14:42:21;15.10;97.50
4050;DHT22;2039;50.894;6.888;2022-09-17T14:50:08;14.30;99.90
4050;DHT22;2039;50.894;6.888;2022-09-17T14:52:27;14.00;99.90
4050;DHT22;2039;50.894;6.888;2022-09-17T15:02:48;14.10;99.90
4050;DHT22;2039;50.894;6.888;2022-09-17T15:09:24;14.00;99.90
4050;DHT22;2039;50.894;6.888;2022-09-17T15:12:13;14.00;99.90
4050;DHT22;2039;50.894;6.888;2022-09-17T15:14:51;13.90;99.90
4050;DHT22;2039;50.894;6.888;2022-09-17T15:17:44;13.90;99.90
4050;DHT22;2039;50.894;6.888;2022-09-17T15:20:18;13.80;99.90
4050;DHT22;2039;50.894;6.888;2022-09-17T15:23:28;13.80;99.90
4050;DHT22;2039;50.894;6.888;2022-09-17T15:26:01;13.60;99.90
4050;DHT22;2039;50.894;6.888;2022-09-17T15:28:45;13.50;99.90
4050;DHT22;2039;50.894;6.888;2022-09-17T15:31:43;13.50;99.90
4050;DHT22;2039;50.894;6.888;2022-09-17T15:34:31;13.40;99.90
4050;DHT22;2039;50.894;6.888;2022-09-17T15:40:43;13.60;99.90
4050;DHT22;2039;50.894;6.888;2022-09-17T15:43:32;13.60;99.90
4050;DHT22;2039;50.894;6.888;2022-09-17T15:49:43;13.60;99.90
4050;DHT22;2039;50.894;6.888;2022-09-17T15:52:32;13.50;99.90
4050;DHT22;2039;50.894;6.888;2022-09-17T16:04:03;14.50;99.90
4050;DHT22;2039;50.894;6.888;2022-09-17T16:09:02;15.80;99.90
4050;DHT22;2039;50.894;6.888;2022-09-17T16:11:40;15.70;99.90
4050;DHT22;2039;50.894;6.888;2022-09-17T16:14:14;15.50;99.90
4050;DHT22;2039;50.894;6.888;2022-09-17T16:16:42;15.70;99.90
4050;DHT22;2039;50.894;6.888;2022-09-17T16:19:14;15.60;99.90
4050;DHT22;2039;50.894;6.888;2022-09-17T16:21:42;15.40;99.90
4050;DHT22;2039;50.894;6.888;2022-09-17T16:24:14;15.40;99.90
4050;DHT22;2039;50.894;6.888;2022-09-17T16:26:48;15.60;99.90
4050;DHT22;2039;50.894;6.888;2022-09-17T16:29:16;15.50;99.90
4050;DHT22;2039;50.894;6.888;2022-09-17T16:31:42;15.60;99.90
4050;DHT22;2039;50.894;6.888;2022-09-17T16:34:12;15.50;99.90
4050;DHT22;2039;50.894;6.888;2022-09-17T16:36:41;15.40;99.90
4050;DHT22;2039;50.894;6.888;2022-09-17T16:39:10;15.40;99.90
4050;DHT22;2039;50.894;6.888;2022-09-17T16:41:36;15.20;99.90
4050;DHT22;2039;50.894;6.888;2022-09-17T16:44:02;15.10;99.90
4050;DHT22;2039;50.894;6.888;2022-09-17T16:46:28;15.00;99.90
4050;DHT22;2039;50.894;6.888;2022-09-17T16:48:56;15.00;99.90
4050;DHT22;2039;50.894;6.888;2022-09-17T16:51:22;14.90;99.90
4050;DHT22;2039;50.894;6.888;2022-09-17T16:53:47;14.90;99.90
4050;DHT22;2039;50.894;6.888;2022-09-17T16:56:14;14.70;99.90
4050;DHT22;2039;50.894;6.888;2022-09-17T16:58:40;14.60;99.90
4050;DHT22;2039;50.894;6.888;2022-09-17T17:01:13;14.40;99.90
4050;DHT22;2039;50.894;6.888;2022-09-17T17:03:39;14.10;99.90
4050;DHT22;2039;50.894;6.888;2022-09-17T17:06:06;14.00;99.90
4050;DHT22;2039;50.894;6.888;2022-09-17T17:08:32;14.00;99.90
4050;DHT22;2039;50.894;6.888;2022-09-17T17:10:58;13.90;99.90
4050;DHT22;2039;50.894;6.888;2022-09-17T17:13:24;13.80;99.90
4050;DHT22;2039;50.894;6.888;2022-09-17T17:15:52;13.70;99.90
4050;DHT22;2039;50.894;6.888;2022-09-17T17:18:20;13.60;99.90
4050;DHT22;2039;50.894;6.888;2022-09-17T17:20:46;13.60;99.90
4050;DHT22;2039;50.894;6.888;2022-09-17T17:23:13;13.70;99.90
4050;DHT22;2039;50.894;6.888;2022-09-17T17:25:39;13.70;99.90
4050;DHT22;2039;50.894;6.888;2022-09-17T17:28:04;13.60;99.90
4050;DHT22;2039;50.894;6.888;2022-09-17T17:30:30;13.60;99.90
4050;DHT22;2039;50.894;6.888;2022-09-17T17:32:57;13.60;99.90
4050;DHT22;2039;50.894;6.888;2022-09-17T17:35:25;13.60;99.90
4050;DHT22;2039;50.894;6.888;2022-09-17T17:37:51;13.60;99.90
4050;DHT22;2039;50.894;6.888;2022-09-17T17:40:16;13.50;99.90
4050;DHT22;2039;50.894;6.888;2022-09-17T17:42:42;13.50;99.90
4050;DHT22;2039;50.894;6.888;2022-09-17T17:45:09;13.40;99.90
4050;DHT22;2039;50.894;6.888;2022-09-17T17:47:35;13.30;99.90
4050;DHT22;2039;50.894;6.888;2022-09-17T17:50:01;13.20;99.90
4050;DHT22;2039;50.894;6.888;2022-09-17T17:52:27;13.20;99.90
4050;DHT22;2039;50.894;6.888;2022-09-17T17:54:53;13.10;99.90
4050;DHT22;2039;50.894;6.888;2022-09-17T17:57:18;13.10;99.90
4050;DHT22;2039;50.894;6.888;2022-09-17T17:59:44;13.00;99.90
4050;DHT22;2039;50.894;6.888;2022-09-17T18:02:10;13.00;99.90
4050;DHT22;2039;50.894;6.888;2022-09-17T18:04:36;13.10;99.90
4050;DHT22;2039;50.894;6.888;2022-09-17T18:07:02;13.10;99.90
4050;DHT22;2039;50.894;6.888;2022-09-17T18:09:27;13.00;99.90
4050;DHT22;2039;50.894;6.888;2022-09-17T18:11:54;13.00;99.90
4050;DHT22;2039;50.894;6.888;2022-09-17T18:14:20;12.90;99.90
4050;DHT22;2039;50.894;6.888;2022-09-17T18:16:45;12.80;99.90
4050;DHT22;2039;50.894;6.888;2022-09-17T18:19:11;12.80;99.90
4050;DHT22;2039;50.894;6.888;2022-09-17T18:21:37;12.80;99.90
4050;DHT22;2039;50.894;6.888;2022-09-17T18:24:03;12.90;99.90
4050;DHT22;2039;50.894;6.888;2022-09-17T18:26:29;12.80;99.90
4050;DHT22;2039;50.894;6.888;2022-09-17T18:28:56;12.80;99.90
4050;DHT22;2039;50.894;6.888;2022-09-17T18:34:00;12.80;99.90
4050;DHT22;2039;50.894;6.888;2022-09-17T18:36:28;12.80;99.90
4050;DHT22;2039;50.894;6.888;2022-09-17T18:38:56;12.80;99.90
4050;DHT22;2039;50.894;6.888;2022-09-17T18:41:29;12.80;99.90
4050;DHT22;2039;50.894;6.888;2022-09-17T18:43:56;12.80;99.90
4050;DHT22;2039;50.894;6.888;2022-09-17T18:46:22;12.80;99.90
4050;DHT22;2039;50.894;6.888;2022-09-17T18:48:55;12.80;99.90
4050;DHT22;2039;50.894;6.888;2022-09-17T18:51:22;12.80;99.90
4050;DHT22;2039;50.894;6.888;2022-09-17T18:53:48;12.90;99.90
4050;DHT22;2039;50.894;6.888;2022-09-17T18:58:46;13.00;99.90
4050;DHT22;2039;50.894;6.888;2022-09-17T19:01:12;13.00;99.90
4050;DHT22;2039;50.894;6.888;2022-09-17T19:03:38;13.00;99.90
4050;DHT22;2039;50.894;6.888;2022-09-17T19:06:06;12.90;99.90
4050;DHT22;2039;50.894;6.888;2022-09-17T19:08:32;12.90;99.90
4050;DHT22;2039;50.894;6.888;2022-09-17T19:10:59;12.80;99.90
4050;DHT22;2039;50.894;6.888;2022-09-17T19:13:25;12.80;99.90
4050;DHT22;2039;50.894;6.888;2022-09-17T19:15:55;12.80;99.90
4050;DHT22;2039;50.894;6.888;2022-09-17T19:18:21;12.70;99.90
4050;DHT22;2039;50.894;6.888;2022-09-17T19:20:47;12.70;99.90
4050;DHT22;2039;50.894;6.888;2022-09-17T19:23:12;12.70;99.90
4050;DHT22;2039;50.894;6.888;2022-09-17T19:25:38;12.70;99.90
4050;DHT22;2039;50.894;6.888;2022-09-17T19:28:04;12.70;99.90
4050;DHT22;2039;50.894;6.888;2022-09-17T19:30:30;12.70;99.90
4050;DHT22;2039;50.894;6.888;2022-09-17T19:32:56;12.70;99.90
4050;DHT22;2039;50.894;6.888;2022-09-17T19:35:23;12.70;99.90
4050;DHT22;2039;50.894;6.888;2022-09-17T19:37:49;12.80;99.90
4050;DHT22;2039;50.894;6.888;2022-09-17T19:40:16;12.70;99.90
4050;DHT22;2039;50.894;6.888;2022-09-17T19:42:42;12.70;99.90
4050;DHT22;2039;50.894;6.888;2022-09-17T19:45:08;12.80;99.90
4050;DHT22;2039;50.894;6.888;2022-09-17T19:47:34;12.80;99.90
4050;DHT22;2039;50.894;6.888;2022-09-17T19:49:59;12.80;99.90
4050;DHT22;2039;50.894;6.888;2022-09-17T19:52:25;12.80;99.90
4050;DHT22;2039;50.894;6.888;2022-09-17T19:54:51;12.80;99.90
4050;DHT22;2039;50.894;6.888;2022-09-17T19:57:17;12.70;99.90
4050;DHT22;2039;50.894;6.888;2022-09-17T19:59:43;12.80;99.90
4050;DHT22;2039;50.894;6.888;2022-09-17T20:02:11;12.80;99.90
4050;DHT22;2039;50.894;6.888;2022-09-17T20:04:37;12.80;99.90
4050;DHT22;2039;50.894;6.888;2022-09-17T20:07:02;12.80;99.90
4050;DHT22;2039;50.894;6.888;2022-09-17T20:09:29;12.80;99.90
4050;DHT22;2039;50.894;6.888;2022-09-17T20:11:55;12.70;99.90
4050;DHT22;2039;50.894;6.888;2022-09-17T20:14:23;12.80;99.90